Time;durP1;ratioP1;P1;durP2;ratioP2;P2;SDS_P1;SDS_P2;PMS_P1;PMS_P2;Temp;Humidity;BMP_temperature;BMP_pressure;BME280_temperature;BME280_humidity;BME280_pressure;Samples;Min_cycle;Max_cycle;Signal;HPM_P1;HPM_P2
2024/04/16 00:00:56;;;;;;;3.40;1.70;;;;;;;8.52;100.00;99174.86;87026;268;139269;-66
2024/04/16 00:02:56;;;;;;;6.40;2.00;;;;;;;8.52;100.00;99155.33;87304;265;23762;-64
2024/04/16 00:04:58;;;;;;;2.30;2.10;;;;;;;8.52;100.00;99167.59;87162;273;136350;-72
2024/04/16 00:06:59;;;;;;;4.70;2.20;;;;;;;8.51;100.00;99192.83;87186;277;22997;-67
2024/04/16 00:08:59;;;;;;;3.90;2.10;;;;;;;8.50;100.00;99207.46;87180;270;136635;-66
2024/04/16 00:11:03;;;;;;;4.70;2.30;;;;;;;8.51;100.00;99204.15;87236;270;22974;-66
2024/04/16 00:13:04;;;;;;;3.40;1.50;;;;;;;8.54;100.00;99202.55;87186;274;137968;-64
2024/04/16 00:15:17;;;;;;;3.40;2.30;;;;;;;8.54;100.00;99214.25;87304;262;23857;-65
2024/04/16 00:17:18;;;;;;;3.70;2.80;;;;;;;8.54;100.00;99224.34;87137;271;137572;-66
2024/04/16 00:19:19;;;;;;;3.00;2.40;;;;;;;8.52;100.00;99217.10;87138;268;22651;-63
2024/04/16 00:21:20;;;;;;;3.30;2.50;;;;;;;8.51;100.00;99212.57;87141;270;137178;-64
2024/04/16 00:23:21;;;;;;;3.90;2.00;;;;;;;8.48;100.00;99223.35;87254;278;22597;-64
2024/04/16 00:25:22;;;;;;;4.70;2.60;;;;;;;8.48;100.00;99241.30;87144;266;137463;-76
2024/04/16 00:27:22;;;;;;;3.20;2.30;;;;;;;8.48;100.00;99246.55;87324;271;25111;-65
2024/04/16 00:29:23;;;;;;;5.00;2.40;;;;;;;8.51;100.00;99247.17;87195;269;136429;-63
2024/04/16 00:31:24;;;;;;;4.80;2.90;;;;;;;8.55;100.00;99238.32;87317;274;23737;-67
2024/04/16 00:33:25;;;;;;;2.90;2.40;;;;;;;8.56;100.00;99223.61;87136;274;136900;-64
2024/04/16 00:35:25;;;;;;;7.10;3.40;;;;;;;8.57;100.00;99211.92;87324;277;25603;-62
2024/04/16 00:37:26;;;;;;;4.20;2.90;;;;;;;8.58;100.00;99210.55;87119;278;137330;-63
2024/04/16 00:39:27;;;;;;;4.10;2.80;;;;;;;8.61;100.00;99205.52;87298;271;22572;-64
2024/04/16 00:41:29;;;;;;;4.40;2.20;;;;;;;8.64;100.00;99193.98;87310;275;136205;-66
2024/04/16 00:43:30;;;;;;;5.90;2.60;;;;;;;8.66;100.00;99184.42;87459;278;25326;-63
2024/04/16 00:45:30;;;;;;;4.50;2.70;;;;;;;8.67;100.00;99170.40;87332;270;136958;-64
2024/04/16 00:47:31;;;;;;;3.70;2.70;;;;;;;8.67;100.00;99163.13;87411;271;25175;-68
2024/04/16 00:49:32;;;;;;;4.20;2.80;;;;;;;8.67;100.00;99150.83;87150;270;136733;-65
2024/04/16 00:51:34;;;;;;;7.00;2.70;;;;;;;8.68;100.00;99139.27;87220;278;25182;-64
2024/04/16 00:53:36;;;;;;;7.20;2.20;;;;;;;8.69;100.00;99129.86;87145;266;136407;-63
2024/04/16 00:55:37;;;;;;;2.80;2.40;;;;;;;8.70;100.00;99112.21;87210;266;22560;-65
2024/04/16 00:57:38;;;;;;;2.80;2.40;;;;;;;8.72;100.00;99101.74;87158;273;136822;-64
2024/04/16 00:59:40;;;;;;;4.50;3.90;;;;;;;8.71;100.00;99088.98;87372;278;22559;-63
2024/04/16 01:01:40;;;;;;;7.00;1.90;;;;;;;8.72;100.00;99087.08;87799;266;136514;-66
2024/04/16 01:03:43;;;;;;;4.50;2.30;;;;;;;8.72;100.00;99083.77;87260;270;22571;-64
2024/04/16 01:05:44;;;;;;;3.30;2.40;;;;;;;8.68;100.00;99069.02;87168;270;137987;-65
2024/04/16 01:07:45;;;;;;;4.30;2.60;;;;;;;8.66;100.00;99070.48;87170;274;22551;-63
2024/04/16 01:09:46;;;;;;;3.50;2.90;;;;;;;8.62;100.00;99087.61;87081;268;136951;-66
2024/04/16 01:11:46;;;;;;;7.10;3.50;;;;;;;8.58;100.00;99091.63;87191;271;22616;-66
2024/04/16 01:13:47;;;;;;;4.50;2.50;;;;;;;8.55;100.00;99097.59;87145;274;136893;-67
2024/04/16 01:15:47;;;;;;;5.50;2.60;;;;;;;8.56;100.00;99106.42;87249;274;22631;-65
2024/04/16 01:17:48;;;;;;;5.80;3.10;;;;;;;8.59;100.00;99109.77;87075;278;138901;-68
2024/04/16 01:19:49;;;;;;;5.90;2.90;;;;;;;8.63;100.00;99106.05;87287;273;25185;-66
2024/04/16 01:21:50;;;;;;;5.40;3.10;;;;;;;8.67;100.00;99092.23;87102;272;137655;-63
2024/04/16 01:23:51;;;;;;;5.30;2.60;;;;;;;8.69;100.00;99098.40;87243;269;22559;-64
2024/04/16 01:25:51;;;;;;;2.60;2.40;;;;;;;8.67;100.00;99113.11;87156;266;137975;-63
2024/04/16 01:27:52;;;;;;;3.60;3.30;;;;;;;8.68;100.00;99124.18;87231;266;22606;-64
2024/04/16 01:29:53;;;;;;;4.70;2.90;;;;;;;8.68;100.00;99128.03;87007;272;136314;-62
2024/04/16 01:31:54;;;;;;;6.40;4.20;;;;;;;8.70;100.00;99114.34;87197;278;22588;-62
2024/04/16 01:33:54;;;;;;;3.70;3.10;;;;;;;8.73;100.00;99101.42;87047;275;136092;-64
2024/04/16 01:35:55;;;;;;;2.60;2.40;;;;;;;8.76;100.00;99094.41;87030;273;25413;-63
2024/04/16 01:37:56;;;;;;;5.50;3.60;;;;;;;8.80;100.00;99099.27;87145;270;137191;-63
2024/04/16 01:39:57;;;;;;;4.30;3.60;;;;;;;8.82;100.00;99096.66;87117;272;22581;-63
2024/04/16 01:41:57;;;;;;;4.00;2.90;;;;;;;8.85;100.00;99097.19;87134;271;137449;-65
2024/04/16 01:43:58;;;;;;;5.00;2.90;;;;;;;8.86;100.00;99096.48;87274;271;25111;-65
2024/04/16 01:45:59;;;;;;;8.40;2.70;;;;;;;8.86;100.00;99095.71;87158;271;136723;-63
2024/04/16 01:48:00;;;;;;;5.30;3.50;;;;;;;8.87;100.00;99094.52;87313;269;23398;-67
2024/04/16 01:50:00;;;;;;;6.20;4.80;;;;;;;8.90;100.00;99086.46;87134;274;137714;-63
2024/04/16 01:52:01;;;;;;;8.40;5.60;;;;;;;8.95;100.00;99086.41;87221;270;22571;-63
2024/04/16 01:54:02;;;;;;;6.20;5.00;;;;;;;8.99;100.00;99076.50;87049;274;137484;-64
2024/04/16 01:56:03;;;;;;;6.30;4.80;;;;;;;9.03;100.00;99074.16;87133;274;139782;-68
2024/04/16 01:58:04;;;;;;;10.40;4.50;;;;;;;9.07;100.00;99085.84;87210;274;25022;-64
2024/04/16 02:00:07;;;;;;;11.10;4.70;;;;;;;9.10;100.00;99090.01;87127;270;137005;-64
2024/04/16 02:03:35;;;;;;;7.70;4.70;;;;;;;9.06;100.00;99096.04;85241;298;602946;-69
2024/04/16 02:05:40;;;;;;;5.30;4.40;;;;;;;9.03;100.00;99115.23;85961;286;137654;-69
2024/04/16 02:07:41;;;;;;;7.80;4.80;;;;;;;9.02;100.00;99109.85;85972;293;22578;-65
2024/04/16 02:09:41;;;;;;;8.10;4.40;;;;;;;9.02;100.00;99110.93;85881;292;136999;-64
2024/04/16 02:11:44;;;;;;;7.50;4.60;;;;;;;9.01;100.00;99113.95;86060;289;22584;-67
2024/04/16 02:13:44;;;;;;;6.80;4.80;;;;;;;9.00;100.00;99112.77;86629;285;136200;-63
2024/04/16 02:15:45;;;;;;;7.00;4.90;;;;;;;8.96;100.00;99120.02;86632;286;24232;-64
2024/04/16 02:17:46;;;;;;;8.50;5.30;;;;;;;8.93;100.00;99141.87;85926;276;957839;-64
2024/04/16 02:19:46;;;;;;;5.80;5.00;;;;;;;8.92;100.00;99149.50;86748;272;22574;-63
2024/04/16 02:21:47;;;;;;;7.70;5.40;;;;;;;8.90;100.00;99153.64;86754;282;136118;-63
2024/04/16 02:23:48;;;;;;;10.60;5.00;;;;;;;8.91;100.00;99157.39;86928;272;23776;-62
2024/04/16 02:25:52;;;;;;;7.50;4.90;;;;;;;8.93;100.00;99168.31;86811;272;137520;-62
2024/04/16 02:27:52;;;;;;;11.80;5.50;;;;;;;8.96;100.00;99179.70;86894;275;23771;-67
2024/04/16 02:29:53;;;;;;;5.90;4.70;;;;;;;8.99;100.00;99189.86;86615;271;136248;-65
2024/04/16 02:31:54;;;;;;;5.90;4.80;;;;;;;8.99;100.00;99197.54;86907;272;24511;-63
2024/04/16 02:33:55;;;;;;;11.10;5.10;;;;;;;8.99;100.00;99195.95;86872;275;137123;-64
2024/04/16 02:36:02;;;;;;;8.00;5.60;;;;;;;8.99;100.00;99194.80;86904;275;24159;-64
2024/04/16 02:38:03;;;;;;;5.70;5.00;;;;;;;8.99;100.00;99197.30;86962;284;22616;-66
2024/04/16 02:40:04;;;;;;;6.30;4.60;;;;;;;8.98;100.00;99188.91;86831;275;136288;-66
2024/04/16 02:42:05;;;;;;;6.40;5.50;;;;;;;8.97;100.00;99185.84;86897;285;22578;-64
2024/04/16 02:44:06;;;;;;;7.70;5.20;;;;;;;8.95;100.00;99185.20;86749;275;136601;-63
2024/04/16 02:46:06;;;;;;;8.10;5.10;;;;;;;8.95;100.00;99182.33;86984;275;24004;-67
2024/04/16 02:48:07;;;;;;;10.70;5.00;;;;;;;8.97;100.00;99178.41;86759;279;137003;-77
2024/04/16 02:50:08;;;;;;;5.60;4.90;;;;;;;9.01;100.00;99169.03;86933;278;22575;-66
2024/04/16 02:52:09;;;;;;;5.80;4.80;;;;;;;9.03;100.00;99160.93;86885;282;137540;-64
2024/04/16 02:54:09;;;;;;;7.30;4.80;;;;;;;9.04;100.00;99146.77;86949;267;23451;-66
2024/04/16 02:56:10;;;;;;;8.50;5.20;;;;;;;9.07;100.00;99130.05;86934;275;136946;-63
2024/04/16 02:58:11;;;;;;;5.60;4.60;;;;;;;9.09;100.00;99128.37;86955;271;22591;-64
2024/04/16 03:00:12;;;;;;;7.10;5.00;;;;;;;9.10;100.00;99128.38;86848;270;136461;-65
2024/04/16 03:02:12;;;;;;;6.00;4.40;;;;;;;9.13;100.00;99124.31;86918;276;25134;-63
2024/04/16 03:04:13;;;;;;;4.60;3.70;;;;;;;9.12;100.00;99113.15;86831;282;138130;-65
2024/04/16 03:06:14;;;;;;;6.70;4.20;;;;;;;9.07;100.00;99101.06;86888;272;22568;-81
2024/04/16 03:08:15;;;;;;;4.30;2.60;;;;;;;9.01;100.00;99094.04;86792;287;136720;-64
2024/04/16 03:10:16;;;;;;;4.10;3.60;;;;;;;8.95;100.00;99093.61;86870;276;24007;-63
2024/04/16 03:12:16;;;;;;;5.10;3.20;;;;;;;8.89;100.00;99086.34;86871;267;137253;-63
2024/04/16 03:14:17;;;;;;;4.40;4.00;;;;;;;8.83;100.00;99080.88;86901;271;22653;-63
2024/04/16 03:16:18;;;;;;;4.60;3.60;;;;;;;8.79;100.00;99076.84;86844;268;136815;-62
2024/04/16 03:18:19;;;;;;;11.50;4.20;;;;;;;8.74;100.00;99067.73;86948;279;22635;-68
2024/04/16 03:20:19;;;;;;;6.10;3.90;;;;;;;8.72;100.00;99063.48;86821;272;137545;-63
2024/04/16 03:22:20;;;;;;;7.20;4.50;;;;;;;8.66;100.00;99053.37;86938;280;22580;-62
2024/04/16 03:24:21;;;;;;;7.40;3.90;;;;;;;8.63;100.00;99045.03;86810;272;136912;-61
2024/04/16 03:26:22;;;;;;;2.40;2.20;;;;;;;8.61;100.00;99039.43;86872;284;22680;-64
2024/04/16 03:28:23;;;;;;;4.60;3.10;;;;;;;8.59;100.00;99030.65;86816;281;136380;-65
2024/04/16 03:30:25;;;;;;;4.80;3.10;;;;;;;8.53;100.00;99017.52;86967;271;23866;-63
2024/04/16 03:32:26;;;;;;;4.00;3.00;;;;;;;8.49;100.00;99011.30;86923;271;136879;-64
2024/04/16 03:34:27;;;;;;;3.70;2.90;;;;;;;8.45;100.00;99011.31;86854;283;23285;-63
2024/04/16 03:36:28;;;;;;;4.30;3.40;;;;;;;8.41;100.00;99008.45;86892;282;136439;-65
2024/04/16 03:38:29;;;;;;;6.10;3.50;;;;;;;8.38;100.00;99002.95;86885;284;22565;-62
2024/04/16 03:40:30;;;;;;;6.20;3.80;;;;;;;8.35;100.00;98999.48;86793;283;136693;-61
2024/04/16 03:42:30;;;;;;;4.70;4.20;;;;;;;8.32;100.00;98988.87;86933;275;25223;-64
2024/04/16 03:44:31;;;;;;;4.30;3.90;;;;;;;8.30;100.00;98983.45;86706;275;136155;-63
2024/04/16 03:46:32;;;;;;;5.80;5.10;;;;;;;8.27;100.00;98977.77;86727;275;22557;-61
2024/04/16 03:48:32;;;;;;;7.20;4.40;;;;;;;8.25;100.00;98972.52;86571;276;137171;-67
2024/04/16 03:50:33;;;;;;;4.40;4.00;;;;;;;8.24;100.00;98967.16;86742;276;22563;-64
2024/04/16 03:52:33;;;;;;;5.00;3.40;;;;;;;8.24;100.00;98964.91;86800;283;136371;-65
2024/04/16 03:54:34;;;;;;;4.40;3.20;;;;;;;8.23;100.00;98967.77;86815;276;25114;-64
2024/04/16 03:56:35;;;;;;;8.00;4.10;;;;;;;8.20;100.00;98956.54;86780;280;137538;-65
2024/04/16 03:58:43;;;;;;;5.00;3.40;;;;;;;8.16;100.00;98960.91;86901;282;22546;-68
2024/04/16 04:01:00;;;;;;;6.10;4.10;;;;;;;8.13;100.00;98963.46;86820;272;138191;-66
2024/04/16 04:03:00;;;;;;;5.00;4.50;;;;;;;8.13;100.00;98966.03;86834;276;24004;-66
2024/04/16 04:05:01;;;;;;;5.00;3.40;;;;;;;8.14;100.00;98969.42;86810;271;137191;-65
2024/04/16 04:07:02;;;;;;;7.00;3.90;;;;;;;8.17;100.00;98968.14;86992;282;22597;-65
2024/04/16 04:09:03;;;;;;;4.50;3.80;;;;;;;8.18;100.00;98966.64;86840;284;136724;-62
2024/04/16 04:11:04;;;;;;;4.70;3.80;;;;;;;8.20;100.00;98969.98;87087;273;22567;-68
2024/04/16 04:13:04;;;;;;;4.10;3.70;;;;;;;8.20;100.00;98967.86;87028;275;137270;-62
2024/04/16 04:15:05;;;;;;;4.60;4.00;;;;;;;8.21;100.00;98971.90;87026;274;22520;-63
2024/04/16 04:17:06;;;;;;;5.10;3.70;;;;;;;8.24;100.00;98978.77;86931;271;136555;-66
2024/04/16 04:19:07;;;;;;;7.30;4.50;;;;;;;8.26;100.00;98988.31;87006;283;22560;-64
2024/04/16 04:21:08;;;;;;;9.60;4.30;;;;;;;8.29;100.00;98994.92;86735;279;136819;-65
2024/04/16 04:23:09;;;;;;;4.10;3.70;;;;;;;8.33;100.00;99003.58;86979;272;24011;-64
2024/04/16 04:25:10;;;;;;;6.90;4.00;;;;;;;8.37;100.00;99007.21;86726;273;136619;-67
2024/04/16 04:27:10;;;;;;;8.00;4.90;;;;;;;8.42;100.00;99023.23;86797;277;22659;-74
2024/04/16 04:29:11;;;;;;;6.10;5.20;;;;;;;8.47;100.00;99046.61;87692;283;137175;-73
2024/04/16 04:31:18;;;;;;;15.30;7.10;;;;;;;8.53;100.00;99065.23;88506;276;23731;-75
2024/04/16 04:33:18;;;;;;;16.00;7.80;;;;;;;8.56;100.00;99083.09;88341;271;138469;-72
2024/04/16 04:35:20;;;;;;;14.90;7.50;;;;;;;8.57;100.00;99085.50;88283;285;22517;-75
2024/04/16 04:37:20;;;;;;;15.00;8.50;;;;;;;8.55;100.00;99092.96;88370;271;136650;-71
2024/04/16 04:39:21;;;;;;;24.40;7.70;;;;;;;8.53;100.00;99095.84;88529;283;22520;-72
2024/04/16 04:41:22;;;;;;;10.80;5.50;;;;;;;8.53;100.00;99098.04;87878;273;136759;-71
2024/04/16 04:43:23;;;;;;;8.70;4.40;;;;;;;8.51;100.00;99102.02;87481;275;22606;-73
2024/04/16 04:45:23;;;;;;;7.60;5.00;;;;;;;8.49;100.00;99107.94;87194;273;136376;-71
2024/04/16 04:47:24;;;;;;;9.40;4.80;;;;;;;8.47;100.00;99114.77;87026;282;22565;-74
2024/04/16 04:49:25;;;;;;;4.60;4.10;;;;;;;8.47;100.00;99121.38;87254;283;136379;-71
2024/04/16 04:51:26;;;;;;;6.60;4.10;;;;;;;8.45;100.00;99122.27;87747;267;22544;-72
2024/04/16 04:53:26;;;;;;;7.70;4.20;;;;;;;8.43;100.00;99121.82;87166;271;136730;-72
2024/04/16 04:55:27;;;;;;;4.80;3.40;;;;;;;8.43;100.00;99120.42;86720;275;22579;-74
2024/04/16 04:57:28;;;;;;;5.60;4.80;;;;;;;8.41;100.00;99118.90;86788;280;136851;-71
2024/04/16 04:59:28;;;;;;;5.00;4.50;;;;;;;8.39;100.00;99115.25;86851;279;22567;-74
2024/04/16 05:01:29;;;;;;;4.70;4.30;;;;;;;8.35;100.00;99111.67;87084;274;137848;-72
2024/04/16 05:03:30;;;;;;;8.30;6.40;;;;;;;8.32;100.00;99112.06;86746;271;22610;-73
2024/04/16 05:05:32;;;;;;;5.10;4.60;;;;;;;8.33;100.00;99109.61;86763;271;136156;-69
2024/04/16 05:07:32;;;;;;;6.10;5.20;;;;;;;8.36;100.00;99106.84;86912;275;22582;-74
2024/04/16 05:09:33;;;;;;;6.40;5.10;;;;;;;8.38;100.00;99105.60;86731;275;136506;-74
2024/04/16 05:11:34;;;;;;;6.70;5.90;;;;;;;8.41;100.00;99100.27;86735;280;22570;-71
2024/04/16 05:13:34;;;;;;;9.00;5.70;;;;;;;8.45;100.00;99092.24;86599;284;137498;-71
2024/04/16 05:15:35;;;;;;;5.20;4.80;;;;;;;8.49;100.00;99085.78;86765;271;26345;-73
2024/04/16 05:17:36;;;;;;;6.70;5.40;;;;;;;8.52;100.00;99082.05;86971;283;136614;-73
2024/04/16 05:19:36;;;;;;;6.10;5.40;;;;;;;8.54;100.00;99075.36;86784;283;22610;-73
2024/04/16 05:21:37;;;;;;;6.20;5.80;;;;;;;8.56;100.00;99076.84;87070;284;136725;-73
2024/04/16 05:23:38;;;;;;;7.00;6.30;;;;;;;8.60;100.00;99072.30;86614;277;22568;-73
2024/04/16 05:25:39;;;;;;;7.90;7.00;;;;;;;8.63;100.00;99066.24;86622;276;137901;-72
2024/04/16 05:27:40;;;;;;;8.50;6.90;;;;;;;8.66;100.00;99058.09;86633;280;25425;-69
2024/04/16 05:29:40;;;;;;;8.90;7.40;;;;;;;8.69;100.00;99052.19;86577;273;136948;-71
2024/04/16 05:31:41;;;;;;;7.90;7.20;;;;;;;8.70;100.00;99036.31;86571;277;22585;-70
2024/04/16 05:33:42;;;;;;;7.30;6.70;;;;;;;8.71;100.00;99031.86;86735;275;136917;-71
2024/04/16 05:35:42;;;;;;;8.40;7.50;;;;;;;8.70;100.00;99033.41;86753;275;22735;-72
2024/04/16 05:37:43;;;;;;;7.80;7.20;;;;;;;8.70;100.00;99033.41;86756;271;136949;-72
2024/04/16 05:39:44;;;;;;;12.40;8.90;;;;;;;8.71;100.00;99034.35;87034;272;22574;-73
2024/04/16 05:41:45;;;;;;;12.40;10.30;;;;;;;8.70;100.00;99029.11;87021;280;137108;-71
2024/04/16 05:43:46;;;;;;;12.80;10.60;;;;;;;8.73;100.00;99025.80;87110;271;24001;-74
2024/04/16 05:45:47;;;;;;;12.40;11.10;;;;;;;8.75;100.00;99014.84;86934;270;138774;-74
2024/04/16 05:47:48;;;;;;;13.80;12.30;;;;;;;8.80;100.00;99013.19;86951;271;25425;-72
2024/04/16 05:49:49;;;;;;;16.40;13.60;;;;;;;8.85;100.00;99019.64;86944;272;137487;-71
2024/04/16 05:51:50;;;;;;;12.80;11.40;;;;;;;8.89;100.00;99021.59;87040;276;24378;-68
2024/04/16 05:53:50;;;;;;;15.70;12.90;;;;;;;8.90;100.00;99018.27;87011;280;137302;-68
2024/04/16 05:55:51;;;;;;;13.60;12.20;;;;;;;8.89;100.00;99021.83;87099;280;24000;-69
2024/04/16 05:57:51;;;;;;;15.90;13.40;;;;;;;8.85;100.00;99021.96;86915;265;137621;-69
2024/04/16 05:59:52;;;;;;;14.80;13.20;;;;;;;8.84;100.00;99025.66;87170;276;24011;-67
2024/04/16 06:01:53;;;;;;;16.40;14.10;;;;;;;8.86;100.00;99032.67;87235;271;138188;-69
2024/04/16 06:03:53;;;;;;;22.10;15.80;;;;;;;8.87;100.00;99039.66;87402;273;22558;-69
2024/04/16 06:05:54;;;;;;;18.80;16.60;;;;;;;8.89;100.00;99040.27;87243;273;137002;-71
2024/04/16 06:07:56;;;;;;;25.90;16.20;;;;;;;8.91;100.00;99035.31;87020;276;22610;-70
2024/04/16 06:09:57;;;;;;;20.30;13.90;;;;;;;8.91;100.00;99039.73;87631;276;136419;-70
2024/04/16 06:11:57;;;;;;;13.40;12.00;;;;;;;8.90;100.00;99037.23;87505;276;24072;-68
2024/04/16 06:13:59;;;;;;;16.00;11.70;;;;;;;8.89;100.00;99038.80;86970;271;137020;-71
2024/04/16 06:15:59;;;;;;;12.20;10.90;;;;;;;8.90;100.00;99037.27;87008;265;22587;-72
2024/04/16 06:18:01;;;;;;;15.10;10.40;;;;;;;8.90;100.00;99047.95;86923;272;136552;-70
2024/04/16 06:20:03;;;;;;;12.40;11.20;;;;;;;8.90;100.00;99043.33;87151;276;24244;-69
2024/04/16 06:22:04;;;;;;;13.90;12.20;;;;;;;8.90;100.00;99036.83;87072;276;24052;-68
2024/04/16 06:24:05;;;;;;;13.20;11.50;;;;;;;8.93;100.00;99030.49;87038;271;137522;-70
2024/04/16 06:26:09;;;;;;;11.10;9.10;;;;;;;8.96;100.00;99024.34;87106;265;22715;-72
2024/04/16 06:28:10;;;;;;;16.70;11.70;;;;;;;8.99;100.00;99023.85;86935;273;136972;-73
2024/04/16 06:30:11;;;;;;;13.30;11.60;;;;;;;9.01;100.00;99023.59;87020;273;25278;-74
2024/04/16 06:32:12;;;;;;;12.70;10.50;;;;;;;9.05;100.00;99022.42;86784;269;137726;-75
2024/04/16 06:34:13;;;;;;;13.70;12.30;;;;;;;9.10;100.00;99021.55;87119;271;23262;-71
2024/04/16 06:36:14;;;;;;;12.70;11.20;;;;;;;9.18;100.00;99020.66;87570;278;138125;-74
2024/04/16 06:38:15;;;;;;;15.60;13.20;;;;;;;9.26;100.00;99017.05;87225;275;22583;-68
2024/04/16 06:40:16;;;;;;;16.30;14.50;;;;;;;9.36;100.00;99005.96;87097;279;138161;-67
2024/04/16 06:42:17;;;;;;;16.50;14.80;;;;;;;9.48;100.00;99001.40;87197;276;25226;-66
2024/04/16 06:44:18;;;;;;;17.70;15.00;;;;;;;9.66;100.00;98995.10;87111;276;136892;-74
2024/04/16 06:46:18;;;;;;;19.80;16.80;;;;;;;9.75;100.00;98983.13;87497;271;24850;-70
2024/04/16 06:48:19;;;;;;;16.00;14.30;;;;;;;9.82;100.00;98977.05;87310;278;138967;-68
2024/04/16 06:50:21;;;;;;;18.50;16.30;;;;;;;9.87;100.00;98979.97;87188;271;22567;-72
2024/04/16 06:52:22;;;;;;;18.80;16.70;;;;;;;9.94;100.00;98977.62;87069;273;137474;-72
2024/04/16 06:54:23;;;;;;;21.50;18.80;;;;;;;10.02;100.00;98978.20;87274;272;22598;-73
2024/04/16 06:56:23;;;;;;;22.60;18.50;;;;;;;10.08;100.00;98983.48;87063;272;138317;-64
2024/04/16 06:58:24;;;;;;;22.00;19.70;;;;;;;10.12;100.00;98985.32;87278;268;22571;-78
2024/04/16 07:00:25;;;;;;;23.00;18.40;;;;;;;10.13;100.00;98987.45;87159;270;137870;-88
2024/04/16 07:02:25;;;;;;;18.50;16.70;;;;;;;10.17;100.00;98984.83;87463;279;22784;-73
2024/04/16 07:04:26;;;;;;;13.60;11.70;;;;;;;10.23;100.00;98977.89;87130;272;137105;-80
2024/04/16 07:06:27;;;;;;;15.10;13.70;;;;;;;10.22;100.00;98972.54;87192;272;24180;-76
2024/04/16 07:08:27;;;;;;;14.70;13.30;;;;;;;10.25;100.00;98972.48;87161;272;159710;-69
2024/04/16 07:10:28;;;;;;;16.20;14.50;;;;;;;10.30;100.00;98975.52;87282;268;24000;-74
2024/04/16 07:12:29;;;;;;;17.30;15.60;;;;;;;10.34;100.00;98978.08;87170;279;138539;-66
2024/04/16 07:14:29;;;;;;;17.20;15.10;;;;;;;10.39;100.00;98991.94;87137;273;22575;-66
2024/04/16 07:16:31;;;;;;;21.20;18.70;;;;;;;10.42;100.00;98992.83;87115;270;137353;-65
2024/04/16 07:18:32;;;;;;;22.70;19.20;;;;;;;10.50;100.00;98998.60;87277;271;25219;-74
2024/04/16 07:20:33;;;;;;;21.20;19.10;;;;;;;10.62;100.00;98996.80;87379;271;137147;-71
2024/04/16 07:22:34;;;;;;;22.00;19.60;;;;;;;10.66;100.00;98999.19;87436;270;22734;-73
2024/04/16 07:24:34;;;;;;;19.90;17.90;;;;;;;10.67;100.00;99000.00;87469;273;138210;-69
2024/04/16 07:26:35;;;;;;;21.10;18.70;;;;;;;10.70;100.00;99000.20;87204;273;22680;-69
2024/04/16 07:28:36;;;;;;;21.60;19.50;;;;;;;10.75;100.00;98997.94;87082;280;136856;-68
2024/04/16 07:30:37;;;;;;;20.60;18.00;;;;;;;10.80;100.00;98997.05;87354;271;22566;-69
2024/04/16 07:32:37;;;;;;;21.90;17.60;;;;;;;10.87;100.00;98993.70;87292;276;137672;-69
2024/04/16 07:34:38;;;;;;;19.00;17.00;;;;;;;10.94;100.00;99002.69;87390;271;22559;-70
2024/04/16 07:36:39;;;;;;;18.80;16.50;;;;;;;10.98;100.00;99008.61;87173;279;138332;-69
2024/04/16 07:38:39;;;;;;;17.10;15.40;;;;;;;11.03;100.00;99008.27;87432;280;25138;-69
2024/04/16 07:40:40;;;;;;;14.70;13.30;;;;;;;11.08;100.00;99010.06;87257;272;137736;-69
2024/04/16 07:42:41;;;;;;;13.90;12.50;;;;;;;11.12;100.00;99005.55;87189;276;25220;-70
2024/04/16 07:44:42;;;;;;;14.70;12.30;;;;;;;11.16;100.00;99010.70;87057;270;137216;-70
2024/04/16 07:46:43;;;;;;;11.90;10.80;;;;;;;11.18;100.00;99006.94;87105;280;22573;-70
2024/04/16 07:48:43;;;;;;;12.80;11.50;;;;;;;11.21;100.00;99002.77;87281;272;137919;-68
2024/04/16 07:50:44;;;;;;;11.50;10.30;;;;;;;11.22;100.00;98999.27;87337;279;24001;-69
2024/04/16 07:52:45;;;;;;;14.60;12.60;;;;;;;11.23;100.00;98998.80;87006;272;138320;-69
2024/04/16 07:54:46;;;;;;;13.90;12.20;;;;;;;11.25;100.00;99001.48;87324;268;22588;-72
2024/04/16 07:56:46;;;;;;;13.00;11.90;;;;;;;11.27;100.00;98999.39;87155;271;138566;-71
2024/04/16 07:58:47;;;;;;;13.70;11.90;;;;;;;11.32;100.00;99001.51;87469;268;22558;-70
2024/04/16 08:00:49;;;;;;;12.80;11.50;;;;;;;11.38;100.00;98998.30;87384;269;137313;-73
2024/04/16 08:02:50;;;;;;;17.10;11.60;;;;;;;11.42;100.00;98997.67;87308;266;22560;-71
2024/04/16 08:04:51;;;;;;;13.20;11.90;;;;;;;11.41;100.00;98996.73;87283;270;138502;-71
2024/04/16 08:06:52;;;;;;;11.10;10.10;;;;;;;11.38;100.00;98985.45;87352;271;25099;-71
2024/04/16 08:08:56;;;;;;;9.80;8.90;;;;;;;11.37;100.00;98988.92;87296;272;137927;-73
2024/04/16 08:11:07;;;;;;;12.50;10.20;;;;;;;11.36;100.00;98989.55;87506;272;23815;-70
2024/04/16 08:13:07;;;;;;;11.00;9.90;;;;;;;11.39;100.00;98990.73;87331;273;138164;-71
2024/04/16 08:15:08;;;;;;;11.40;9.30;;;;;;;11.44;100.00;98994.89;87343;281;22554;-72
2024/04/16 08:17:09;;;;;;;12.00;10.80;;;;;;;11.50;100.00;98993.55;87334;271;138304;-71
2024/04/16 08:19:09;;;;;;;12.10;11.00;;;;;;;11.56;100.00;98991.17;87388;271;26309;-73
2024/04/16 08:21:10;;;;;;;11.40;10.30;;;;;;;11.61;100.00;98981.72;87351;276;139660;-74
2024/04/16 08:23:11;;;;;;;12.20;11.00;;;;;;;11.73;100.00;98975.60;87508;268;22576;-73
2024/04/16 08:25:11;;;;;;;12.80;11.50;;;;;;;11.87;100.00;98980.45;87300;279;139386;-72
2024/04/16 08:27:12;;;;;;;11.90;10.70;;;;;;;11.99;100.00;98984.98;87442;273;22655;-72
2024/04/16 08:29:13;;;;;;;11.70;10.50;;;;;;;12.06;100.00;98983.05;87347;271;138102;-73
2024/04/16 08:31:14;;;;;;;8.80;7.90;;;;;;;12.08;100.00;98976.85;87327;271;22555;-73
2024/04/16 08:33:17;;;;;;;11.20;9.60;;;;;;;12.08;100.00;98974.98;87351;268;138076;-73
2024/04/16 08:35:31;;;;;;;11.10;9.90;;;;;;;12.08;100.00;98977.80;87367;277;24046;-73
2024/04/16 08:37:31;;;;;;;11.90;10.70;;;;;;;12.11;100.00;98977.43;87216;268;138698;-72
2024/04/16 08:39:35;;;;;;;13.50;11.90;;;;;;;12.14;100.00;98974.38;87123;269;23286;-70
2024/04/16 08:41:37;;;;;;;13.40;12.10;;;;;;;12.20;100.00;98967.41;87350;280;138179;-72
2024/04/16 08:43:39;;;;;;;16.80;12.70;;;;;;;12.28;100.00;98968.59;87417;272;22768;-71
2024/04/16 08:45:44;;;;;;;15.00;12.70;;;;;;;12.36;100.00;98964.88;87212;269;137355;-69
2024/04/16 08:47:46;;;;;;;12.30;11.10;;;;;;;12.46;100.00;98962.63;87279;266;22558;-69
2024/04/16 08:49:48;;;;;;;13.40;12.10;;;;;;;12.57;100.00;98964.05;87214;270;138291;-69
2024/04/16 08:51:51;;;;;;;14.30;12.80;;;;;;;12.65;100.00;98965.64;87036;276;24563;-71
2024/04/16 08:53:54;;;;;;;19.70;12.80;;;;;;;12.75;100.00;98966.02;87194;279;136965;-70
2024/04/16 08:55:54;;;;;;;14.00;11.30;;;;;;;12.88;100.00;98972.27;87321;268;22558;-71
2024/04/16 08:57:55;;;;;;;12.80;11.50;;;;;;;12.97;100.00;98970.15;87279;271;136944;-72
2024/04/16 08:59:56;;;;;;;13.00;11.80;;;;;;;13.01;100.00;98973.49;87362;275;22554;-72
2024/04/16 09:02:00;;;;;;;10.70;9.80;;;;;;;13.06;100.00;98970.55;87223;268;136754;-69
2024/04/16 09:04:03;;;;;;;11.80;10.60;;;;;;;13.15;100.00;98969.27;87236;272;22845;-77
2024/04/16 09:06:04;;;;;;;12.90;10.30;;;;;;;13.24;100.00;98969.92;87473;277;24128;-79
2024/04/16 09:08:05;;;;;;;10.30;9.30;;;;;;;13.27;100.00;98966.55;87390;271;137534;-81
2024/04/16 09:10:13;;;;;;;11.30;9.20;;;;;;;13.28;100.00;98970.40;87275;270;25214;-79
2024/04/16 09:12:13;;;;;;;9.70;8.00;;;;;;;13.29;100.00;98967.55;87189;280;138816;-79
2024/04/16 09:14:15;;;;;;;9.80;8.90;;;;;;;13.27;100.00;98970.30;87401;272;22554;-73
2024/04/16 09:16:18;;;;;;;10.50;9.50;;;;;;;13.27;100.00;98968.20;87128;278;137162;-71
2024/04/16 09:18:23;;;;;;;11.50;10.00;;;;;;;13.33;100.00;98965.67;87493;272;24119;-75
2024/04/16 09:20:25;;;;;;;10.80;9.10;;;;;;;13.43;100.00;98956.69;87287;268;137037;-74
2024/04/16 09:22:26;;;;;;;11.70;10.60;;;;;;;13.54;100.00;98952.55;87352;268;25108;-74
2024/04/16 09:24:27;;;;;;;10.70;9.50;;;;;;;13.64;100.00;98947.05;87506;270;138104;-72
2024/04/16 09:26:28;;;;;;;11.40;10.30;;;;;;;13.76;100.00;98945.91;87271;279;22546;-76
2024/04/16 09:28:29;;;;;;;11.20;9.60;;;;;;;13.91;100.00;98947.81;87390;272;137102;-73